Time;durP1;ratioP1;P1;durP2;ratioP2;P2;SDS_P1;SDS_P2;PMS_P1;PMS_P2;Temp;Humidity;BMP_temperature;BMP_pressure;BME280_temperature;BME280_humidity;BME280_pressure;Samples;Min_cycle;Max_cycle;Signal;HPM_P1;HPM_P2
2024/03/01 00:02:11;;;;;;;36.88;20.00;;;307.90;2304.00;;;;;;5094099;28;20376;-77
2024/03/01 00:04:37;;;;;;;28.95;18.27;;;307.90;2304.00;;;;;;5108182;28;20034;-78
2024/03/01 00:07:04;;;;;;;38.83;20.40;;;307.90;2304.00;;;;;;5103599;28;20051;-77
2024/03/01 00:09:30;;;;;;;35.42;20.15;;;307.90;2304.00;;;;;;5104865;28;20020;-78
2024/03/01 00:11:56;;;;;;;31.08;18.60;;;307.90;2304.00;;;;;;5101400;28;20034;-78
2024/03/01 00:14:21;;;;;;;42.90;22.63;;;307.80;2304.00;;;;;;5095883;28;20066;-78
2024/03/01 00:16:47;;;;;;;45.50;21.10;;;307.80;2304.00;;;;;;5116851;28;20027;-77
2024/03/01 00:19:13;;;;;;;37.65;19.63;;;307.80;2304.00;;;;;;5097793;28;20047;-78
2024/03/01 00:21:38;;;;;;;36.30;20.90;;;307.80;2304.00;;;;;;5105992;28;20032;-78
2024/03/01 00:24:07;;;;;;;32.78;20.98;;;307.80;2304.00;;;;;;5104935;28;20063;-77
2024/03/01 00:26:33;;;;;;;37.05;18.40;;;307.80;2304.00;;;;;;5104648;28;20024;-79
2024/03/01 00:28:59;;;;;;;44.38;20.02;;;307.70;2304.00;;;;;;5105712;28;20042;-77
2024/03/01 00:31:25;;;;;;;35.40;20.52;;;307.80;2304.00;;;;;;5111128;28;20028;-77
2024/03/01 00:33:51;;;;;;;43.03;22.45;;;307.90;2304.00;;;;;;5124300;27;20375;-83
2024/03/01 00:36:17;;;;;;;29.55;17.77;;;307.90;2304.00;;;;;;5110145;28;20073;-77
2024/03/01 00:38:43;;;;;;;29.80;17.95;;;307.90;2304.00;;;;;;5120616;27;20027;-78
2024/03/01 00:41:09;;;;;;;36.42;19.52;;;307.90;2304.00;;;;;;5120492;27;20027;-77
2024/03/01 00:43:35;;;;;;;34.15;19.42;;;307.90;2304.00;;;;;;5107308;27;20024;-77
2024/03/01 00:46:00;;;;;;;31.60;17.30;;;307.90;2304.00;;;;;;5118863;27;20051;-77
2024/03/01 00:48:26;;;;;;;34.67;19.70;;;307.90;2304.00;;;;;;5113513;27;20032;-78
2024/03/01 00:50:52;;;;;;;38.72;23.02;;;307.90;2304.00;;;;;;5114338;27;20028;-77
2024/03/01 00:53:18;;;;;;;35.53;21.23;;;307.90;2304.00;;;;;;5115280;27;20023;-78
2024/03/01 00:55:43;;;;;;;39.83;21.70;;;307.90;2304.00;;;;;;5116076;27;20028;-77
2024/03/01 00:58:09;;;;;;;37.60;21.30;;;307.90;2304.00;;;;;;5111213;27;20028;-78
2024/03/01 01:00:35;;;;;;;38.35;18.33;;;307.90;2304.00;;;;;;5104276;27;20020;-81
2024/03/01 01:03:01;;;;;;;34.72;18.92;;;307.90;2304.00;;;;;;5118112;27;20032;-80
2024/03/01 01:05:26;;;;;;;35.85;22.67;;;307.90;2304.00;;;;;;5116471;27;20031;-78
2024/03/01 01:07:52;;;;;;;35.63;21.85;;;307.90;2304.00;;;;;;5115212;27;20038;-77
2024/03/01 01:10:18;;;;;;;35.50;19.40;;;307.90;2304.00;;;;;;5120728;27;20024;-78
2024/03/01 01:12:44;;;;;;;31.17;18.80;;;307.80;2304.00;;;;;;5121532;27;20054;-78
2024/03/01 01:15:10;;;;;;;39.47;20.35;;;307.80;2304.00;;;;;;5113041;27;20121;-77
2024/03/01 01:17:36;;;;;;;37.38;20.60;;;307.80;2304.00;;;;;;5117365;27;20122;-78
2024/03/01 01:20:03;;;;;;;41.97;24.05;;;307.70;2304.00;;;;;;5110797;27;20110;-77
2024/03/01 01:22:29;;;;;;;42.30;22.55;;;307.60;2304.00;;;;;;5119272;27;20024;-77
2024/03/01 01:24:54;;;;;;;46.17;24.25;;;307.40;2304.00;;;;;;5115780;27;20526;-77
2024/03/01 01:27:20;;;;;;;42.05;24.13;;;307.30;2304.00;;;;;;5109922;28;20032;-79
2024/03/01 01:29:46;;;;;;;44.72;23.75;;;307.30;2304.00;;;;;;5114628;27;20034;-80
2024/03/01 01:32:12;;;;;;;47.63;25.80;;;307.20;2304.00;;;;;;5124278;27;20576;-76
2024/03/01 01:34:38;;;;;;;43.65;26.17;;;307.20;2304.00;;;;;;5114560;27;20385;-74
2024/03/01 01:37:04;;;;;;;41.65;24.77;;;282.50;2278.40;;;;;;5107414;28;20461;-77
2024/03/01 01:39:30;;;;;;;41.97;24.75;;;282.50;2278.40;;;;;;5114048;27;20107;-79
2024/03/01 01:41:56;;;;;;;49.47;24.33;;;282.40;2278.40;;;;;;5113460;27;20038;-76
2024/03/01 01:44:22;;;;;;;48.30;26.75;;;282.40;2278.40;;;;;;5105368;28;20180;-76
2024/03/01 01:46:51;;;;;;;45.70;26.27;;;282.20;2278.40;;;;;;5114222;28;20400;-76
2024/03/01 01:49:19;;;;;;;43.42;24.10;;;282.20;2278.40;;;;;;5116201;28;20070;-76
2024/03/01 01:51:46;;;;;;;43.03;25.80;;;282.20;2278.40;;;;;;5102087;28;20052;-76
2024/03/01 01:54:12;;;;;;;46.08;25.67;;;282.20;2278.40;;;;;;5094453;28;20035;-76
2024/03/01 01:56:38;;;;;;;38.95;23.58;;;282.20;2278.40;;;;;;5093961;28;20098;-77
2024/03/01 01:59:04;;;;;;;46.13;27.13;;;282.20;2278.40;;;;;;5095294;28;20039;-76
2024/03/01 02:01:30;;;;;;;44.30;24.38;;;282.20;2278.40;;;;;;5094248;28;20477;-77
2024/03/01 02:03:57;;;;;;;49.53;26.80;;;282.20;2278.40;;;;;;5095228;28;20024;-76
2024/03/01 02:06:23;;;;;;;46.92;25.33;;;282.20;2278.40;;;;;;5095331;28;20108;-74
2024/03/01 02:08:49;;;;;;;44.80;25.67;;;282.20;2278.40;;;;;;5093920;28;20115;-76
2024/03/01 02:11:15;;;;;;;42.33;25.13;;;282.20;2278.40;;;;;;5095366;28;20051;-76
2024/03/01 02:13:40;;;;;;;;;;;282.10;2278.40;;;;;;5094379;28;20028;-78
2024/03/01 02:16:06;;;;;;;48.15;24.98;;;282.20;2278.40;;;;;;5111009;28;19962;-76
2024/03/01 02:18:35;;;;;;;49.65;24.98;;;282.20;2278.40;;;;;;5093730;28;20084;-77
2024/03/01 02:21:10;;;;;;;40.67;24.52;;;282.20;2278.40;;;;;;5095392;28;20020;-77
2024/03/01 02:23:37;;;;;;;45.35;25.38;;;282.30;2278.40;;;;;;5095362;28;20538;-76
2024/03/01 02:26:04;;;;;;;40.35;23.00;;;282.30;2278.40;;;;;;5094896;28;20040;-82
2024/03/01 02:28:30;;;;;;;54.00;24.55;;;282.30;2278.40;;;;;;5093850;28;20028;-74
2024/03/01 02:30:56;;;;;;;39.47;22.52;;;282.20;2278.40;;;;;;5110497;28;20020;-75
2024/03/01 02:33:23;;;;;;;39.22;21.45;;;282.30;2278.40;;;;;;5093710;28;20401;-74
2024/03/01 02:35:49;;;;;;;38.15;22.77;;;282.30;2278.40;;;;;;5093602;28;20031;-74
2024/03/01 02:38:15;;;;;;;44.08;24.52;;;282.30;2278.40;;;;;;5094857;28;20055;-77
2024/03/01 02:40:41;;;;;;;35.35;19.98;;;307.40;2304.00;;;;;;5094787;28;20030;-76
2024/03/01 02:43:07;;;;;;;45.83;22.23;;;282.30;2278.40;;;;;;5094662;28;20028;-80
2024/03/01 02:45:36;;;;;;;38.65;21.83;;;282.30;2278.40;;;;;;5094652;28;20570;-77
2024/03/01 02:48:06;;;;;;;38.10;21.20;;;282.30;2278.40;;;;;;5093201;28;20082;-76
2024/03/01 02:50:31;;;;;;;37.88;21.23;;;282.20;2278.40;;;;;;5094629;28;20025;-77
2024/03/01 02:52:57;;;;;;;37.30;22.20;;;282.20;2278.40;;;;;;5094092;28;20020;-76
2024/03/01 02:55:23;;;;;;;;;;;282.20;2278.40;;;;;;5095084;28;20074;-77
2024/03/01 02:57:51;;;;;;;28.88;18.95;;;282.20;2278.40;;;;;;5093223;28;19941;-78
2024/03/01 03:00:17;;;;;;;38.10;19.85;;;282.20;2278.40;;;;;;5094573;28;20095;-77
2024/03/01 03:02:43;;;;;;;38.50;21.50;;;282.20;2278.40;;;;;;5093068;28;20081;-77
2024/03/01 03:05:10;;;;;;;39.92;20.38;;;282.20;2278.40;;;;;;5094450;28;20407;-76
2024/03/01 03:07:36;;;;;;;39.80;20.90;;;282.20;2278.40;;;;;;5092819;28;20032;-76
2024/03/01 03:10:02;;;;;;;35.53;21.00;;;282.10;2278.40;;;;;;5094114;28;20023;-74
2024/03/01 03:12:28;;;;;;;35.53;22.38;;;282.00;2278.40;;;;;;5093895;28;20554;-75
2024/03/01 03:14:54;;;;;;;42.63;23.00;;;282.10;2278.40;;;;;;5092871;28;20126;-75
2024/03/01 03:17:19;;;;;;;;;;;282.00;2278.40;;;;;;5093579;28;20048;-76
2024/03/01 03:19:45;;;;;;;39.03;20.27;;;282.00;2278.40;;;;;;5094436;28;20396;-79
2024/03/01 03:22:11;;;;;;;38.42;20.15;;;282.00;2278.40;;;;;;5096659;28;20028;-76
2024/03/01 03:24:40;;;;;;;33.15;20.02;;;282.00;2278.40;;;;;;5112983;28;20023;-74
2024/03/01 03:27:07;;;;;;;27.80;18.48;;;282.00;2278.40;;;;;;5111308;28;20028;-75
2024/03/01 03:29:33;;;;;;;34.80;19.75;;;282.00;2278.40;;;;;;5103115;28;20027;-75
2024/03/01 03:31:59;;;;;;;31.95;18.10;;;282.00;2278.40;;;;;;5113532;28;20106;-77
2024/03/01 03:34:25;;;;;;;32.88;18.33;;;282.10;2278.40;;;;;;5112762;28;20443;-76
2024/03/01 03:36:51;;;;;;;30.48;18.08;;;282.10;2278.40;;;;;;5114114;28;20022;-75
2024/03/01 03:39:17;;;;;;;26.25;17.00;;;282.10;2278.40;;;;;;5112915;28;20019;-76
2024/03/01 03:41:43;;;;;;;30.83;17.73;;;282.10;2278.40;;;;;;5112769;28;20024;-79
2024/03/01 03:44:09;;;;;;;36.83;18.10;;;282.10;2278.40;;;;;;5114010;28;20024;-80
2024/03/01 03:46:35;;;;;;;31.75;17.88;;;282.10;2278.40;;;;;;5112628;28;20027;-77
2024/03/01 03:49:02;;;;;;;32.60;18.20;;;282.10;2278.40;;;;;;5112813;28;20036;-79
2024/03/01 03:51:30;;;;;;;29.95;17.75;;;282.20;2278.40;;;;;;5113851;28;20019;-76
2024/03/01 03:53:56;;;;;;;32.85;19.02;;;282.10;2278.40;;;;;;5113995;28;20027;-76
2024/03/01 03:56:23;;;;;;;26.48;17.23;;;282.20;2278.40;;;;;;5113698;28;20016;-76
2024/03/01 03:58:49;;;;;;;28.58;17.08;;;282.10;2278.40;;;;;;5114369;28;20047;-74
2024/03/01 04:01:15;;;;;;;27.52;17.73;;;282.20;2278.40;;;;;;5113494;28;20088;-74
2024/03/01 04:03:41;;;;;;;30.08;17.52;;;282.10;2278.40;;;;;;5113342;28;20461;-74
2024/03/01 04:06:08;;;;;;;26.17;16.05;;;282.10;2278.40;;;;;;5113472;28;20027;-75
2024/03/01 04:08:37;;;;;;;30.27;17.40;;;282.20;2278.40;;;;;;5113720;28;20031;-75
2024/03/01 04:11:05;;;;;;;27.55;16.45;;;282.20;2278.40;;;;;;5113524;28;20026;-75
2024/03/01 04:13:36;;;;;;;24.52;15.68;;;282.20;2278.40;;;;;;5112157;28;20028;-75
2024/03/01 04:16:08;;;;;;;24.38;15.90;;;282.20;2278.40;;;;;;5111816;28;20470;-77
2024/03/01 04:18:34;;;;;;;26.40;16.33;;;282.20;2278.40;;;;;;5112010;28;20052;-76
2024/03/01 04:21:00;;;;;;;25.08;14.65;;;282.10;2278.40;;;;;;5112723;28;20077;-76
2024/03/01 04:23:27;;;;;;;25.25;13.52;;;282.10;2278.40;;;;;;5112421;28;20055;-76
2024/03/01 04:25:54;;;;;;;19.42;13.38;;;281.80;2278.40;;;;;;5111998;28;20031;-76
2024/03/01 04:28:25;;;;;;;26.02;14.57;;;282.10;2278.40;;;;;;5112244;28;20046;-81
2024/03/01 04:30:51;;;;;;;25.42;14.32;;;282.10;2278.40;;;;;;5100279;28;20019;-76
2024/03/01 04:33:17;;;;;;;23.55;13.98;;;282.10;2278.40;;;;;;5113160;28;20019;-78
2024/03/01 04:35:43;;;;;;;22.85;13.95;;;282.20;2278.40;;;;;;5112163;28;20400;-77
2024/03/01 04:38:10;;;;;;;17.95;12.35;;;282.10;2278.40;;;;;;5111558;28;20034;-74
2024/03/01 04:40:37;;;;;;;20.98;12.95;;;282.10;2278.40;;;;;;5104950;28;20024;-75
2024/03/01 04:43:07;;;;;;;21.75;13.32;;;281.90;2278.40;;;;;;5106244;28;20469;-74
2024/03/01 04:45:36;;;;;;;23.58;13.20;;;282.10;2278.40;;;;;;5100997;28;20106;-77
2024/03/01 04:48:02;;;;;;;26.33;13.30;;;282.10;2278.40;;;;;;5112913;28;20031;-76
2024/03/01 04:50:27;;;;;;;19.33;12.07;;;282.00;2278.40;;;;;;5112585;28;20020;-77
2024/03/01 04:52:53;;;;;;;;;;;282.00;2278.40;;;;;;5111376;28;20035;-78
2024/03/01 04:55:19;;;;;;;22.63;13.27;;;282.00;2278.40;;;;;;5101321;28;20260;-78
2024/03/01 04:57:45;;;;;;;22.85;13.02;;;281.90;2278.40;;;;;;5113067;28;20384;-75
2024/03/01 05:00:15;;;;;;;23.63;13.15;;;282.00;2278.40;;;;;;5113289;28;20379;-79
2024/03/01 05:02:42;;;;;;;22.30;12.90;;;282.00;2278.40;;;;;;5112671;28;20031;-74
2024/03/01 05:05:09;;;;;;;22.52;13.85;;;282.00;2278.40;;;;;;5113010;28;20042;-74
2024/03/01 05:07:35;;;;;;;18.70;12.95;;;282.00;2278.40;;;;;;5112783;28;20052;-74
2024/03/01 05:10:08;;;;;;;23.00;12.57;;;282.00;2278.40;;;;;;5111872;28;20484;-75
2024/03/01 05:12:38;;;;;;;20.20;12.80;;;282.10;2278.40;;;;;;5111745;28;20036;-75
2024/03/01 05:15:05;;;;;;;22.60;11.75;;;282.10;2278.40;;;;;;5113304;28;20034;-74
2024/03/01 05:17:35;;;;;;;22.85;12.20;;;282.20;2278.40;;;;;;5114160;28;20043;-74
2024/03/01 05:20:01;;;;;;;22.73;12.70;;;282.20;2278.40;;;;;;5116511;28;20469;-74
2024/03/01 05:22:26;;;;;;;17.23;11.23;;;282.20;2278.40;;;;;;5115085;28;20023;-77
2024/03/01 05:24:52;;;;;;;24.95;11.40;;;282.20;2278.40;;;;;;5116583;28;20027;-76
2024/03/01 05:27:18;;;;;;;21.25;12.35;;;282.20;2278.40;;;;;;5116421;28;20062;-77
2024/03/01 05:29:44;;;;;;;22.23;12.40;;;282.20;2278.40;;;;;;5115443;28;20385;-77
2024/03/01 05:32:10;;;;;;;17.30;10.88;;;282.20;2278.40;;;;;;5115016;28;20098;-76
2024/03/01 05:34:35;;;;;;;15.63;10.07;;;282.20;2278.40;;;;;;5115217;28;20483;-75
2024/03/01 05:37:02;;;;;;;17.80;10.38;;;282.20;2278.40;;;;;;5116272;28;20081;-74
2024/03/01 05:39:28;;;;;;;20.85;10.82;;;282.20;2278.40;;;;;;5116449;28;20090;-73
2024/03/01 05:41:54;;;;;;;19.90;11.35;;;282.20;2278.40;;;;;;5116150;28;20022;-76
2024/03/01 05:44:21;;;;;;;22.45;12.20;;;282.20;2278.40;;;;;;5115884;28;20027;-75
2024/03/01 05:46:47;;;;;;;20.02;12.23;;;282.20;2278.40;;;;;;5114544;28;20107;-75
2024/03/01 05:49:13;;;;;;;17.80;10.90;;;282.20;2278.40;;;;;;5114312;28;20126;-75
2024/03/01 05:51:39;;;;;;;17.20;11.40;;;282.10;2278.40;;;;;;5101051;28;20024;-78
2024/03/01 05:54:05;;;;;;;18.75;11.80;;;282.20;2278.40;;;;;;5114145;28;20032;-76
2024/03/01 05:56:30;;;;;;;17.88;11.68;;;282.10;2278.40;;;;;;5115328;27;20012;-79
2024/03/01 05:58:56;;;;;;;;;;;282.10;2278.40;;;;;;5103019;28;20096;-74
2024/03/01 06:01:23;;;;;;;18.42;11.57;;;282.20;2278.40;;;;;;5110218;27;19915;-78
2024/03/01 06:03:48;;;;;;;21.55;11.68;;;282.20;2278.40;;;;;;5116924;27;20023;-75
2024/03/01 06:06:20;;;;;;;21.75;12.20;;;282.20;2278.40;;;;;;5120930;27;20051;-76
2024/03/01 06:08:46;;;;;;;21.35;11.15;;;282.20;2278.40;;;;;;5107783;27;20044;-74
2024/03/01 06:11:12;;;;;;;19.95;11.70;;;282.20;2278.40;;;;;;5109240;27;20477;-75
2024/03/01 06:13:39;;;;;;;21.60;11.27;;;282.20;2278.40;;;;;;5109204;27;20489;-75
2024/03/01 06:16:06;;;;;;;22.48;11.57;;;282.30;2278.40;;;;;;5113373;27;20028;-75
2024/03/01 06:18:32;;;;;;;21.60;13.20;;;282.20;2278.40;;;;;;5114929;27;20075;-79
2024/03/01 06:20:58;;;;;;;21.75;12.48;;;282.30;2278.40;;;;;;5116066;27;20071;-79
2024/03/01 06:23:24;;;;;;;19.88;12.13;;;282.30;2278.40;;;;;;5097227;27;20431;-84
2024/03/01 06:25:49;;;;;;;26.90;14.30;;;282.30;2278.40;;;;;;5108505;28;20028;-80
2024/03/01 06:28:16;;;;;;;24.55;13.05;;;282.40;2278.40;;;;;;5118200;27;20039;-80
2024/03/01 06:30:42;;;;;;;22.85;13.15;;;282.40;2278.40;;;;;;5117522;27;20023;-81
2024/03/01 06:33:08;;;;;;;20.10;12.55;;;282.40;2278.40;;;;;;5106306;27;20078;-82
2024/03/01 06:35:33;;;;;;;22.77;13.18;;;282.50;2278.40;;;;;;5116847;27;20114;-81
2024/03/01 06:38:00;;;;;;;23.45;12.38;;;282.50;2278.40;;;;;;5103894;27;20027;-80
2024/03/01 06:40:26;;;;;;;21.00;12.20;;;307.20;2304.00;;;;;;5116027;27;20031;-79
2024/03/01 06:42:52;;;;;;;16.58;10.93;;;307.20;2304.00;;;;;;5101746;27;20084;-78
2024/03/01 06:45:17;;;;;;;20.63;11.50;;;307.20;2304.00;;;;;;5115175;27;20058;-79
2024/03/01 06:47:43;;;;;;;21.85;11.57;;;307.30;2304.00;;;;;;5115739;27;20032;-77
2024/03/01 06:50:09;;;;;;;19.38;10.85;;;307.30;2304.00;;;;;;5100941;28;20024;-75
2024/03/01 06:52:35;;;;;;;;;;;307.20;2304.00;;;;;;5098011;28;20038;-76
2024/03/01 06:55:01;;;;;;;20.70;11.30;;;307.20;2304.00;;;;;;5103522;28;19916;-82
2024/03/01 06:57:27;;;;;;;19.98;10.02;;;307.20;2304.00;;;;;;5109114;27;20039;-75
2024/03/01 06:59:53;;;;;;;17.02;10.75;;;307.20;2304.00;;;;;;5106270;28;20024;-77
2024/03/01 07:02:19;;;;;;;16.77;9.55;;;307.20;2304.00;;;;;;5106947;27;20028;-75
2024/03/01 07:04:45;;;;;;;22.85;11.70;;;307.20;2304.00;;;;;;5117070;27;20740;-75
2024/03/01 07:07:10;;;;;;;21.30;12.02;;;307.20;2304.00;;;;;;5110033;27;20047;-76
2024/03/01 07:09:36;;;;;;;23.90;13.27;;;307.30;2304.00;;;;;;5108547;27;20061;-80
2024/03/01 07:12:02;;;;;;;20.25;12.32;;;307.20;2304.00;;;;;;5109427;27;20115;-77
2024/03/01 07:14:28;;;;;;;15.63;10.20;;;307.20;2304.00;;;;;;5118464;27;20024;-76
2024/03/01 07:16:54;;;;;;;16.88;9.98;;;307.20;2304.00;;;;;;5118361;27;20038;-77
2024/03/01 07:19:19;;;;;;;17.92;9.68;;;307.20;2304.00;;;;;;5098573;28;20548;-76
2024/03/01 07:21:45;;;;;;;;;;;307.20;2304.00;;;;;;5110303;27;22030;-83
2024/03/01 07:24:11;;;;;;;18.60;10.02;;;307.20;2304.00;;;;;;5106906;27;19903;-75
2024/03/01 07:26:36;;;;;;;21.10;10.25;;;307.20;2304.00;;;;;;5103701;28;20028;-79
2024/03/01 07:29:02;;;;;;;17.08;10.93;;;307.20;2304.00;;;;;;5105021;27;20165;-75
2024/03/01 07:31:28;;;;;;;20.88;13.40;;;307.20;2304.00;;;;;;5113381;27;20465;-75
2024/03/01 07:33:55;;;;;;;;;;;307.20;2304.00;;;;;;5114158;27;20509;-75
2024/03/01 07:36:21;;;;;;;16.92;10.00;;;307.20;2304.00;;;;;;5114901;27;19908;-75
2024/03/01 07:38:47;;;;;;;18.60;10.30;;;307.20;2304.00;;;;;;5111147;27;20031;-76
2024/03/01 07:41:13;;;;;;;22.92;11.63;;;307.20;2304.00;;;;;;5106059;28;20113;-78
2024/03/01 07:43:39;;;;;;;20.98;10.90;;;307.20;2304.00;;;;;;5117190;27;20028;-78
2024/03/01 07:46:05;;;;;;;26.63;11.90;;;307.20;2304.00;;;;;;5104090;28;20130;-76
2024/03/01 07:48:32;;;;;;;23.10;12.25;;;307.20;2304.00;;;;;;5110800;27;20119;-75
2024/03/01 07:50:58;;;;;;;22.27;11.98;;;307.20;2304.00;;;;;;5113410;27;20472;-82
2024/03/01 07:53:24;;;;;;;19.48;10.95;;;307.20;2304.00;;;;;;5099457;27;20028;-76
2024/03/01 07:55:49;;;;;;;22.38;10.88;;;307.20;2304.00;;;;;;5096831;28;20054;-76
2024/03/01 07:58:15;;;;;;;22.00;11.40;;;307.20;2304.00;;;;;;5105748;28;20073;-75
2024/03/01 08:00:41;;;;;;;19.85;12.10;;;307.30;2304.00;;;;;;5110372;27;20038;-79
2024/03/01 08:03:09;;;;;;;18.10;11.35;;;307.30;2304.00;;;;;;5104125;28;20420;-79
2024/03/01 08:05:36;;;;;;;17.95;11.20;;;307.30;2304.00;;;;;;5109485;27;20024;-76
2024/03/01 08:08:02;;;;;;;21.63;11.13;;;307.40;2304.00;;;;;;5113066;28;20044;-75
2024/03/01 08:10:33;;;;;;;16.92;10.52;;;307.50;2304.00;;;;;;5102679;28;20051;-77
2024/03/01 08:12:58;;;;;;;20.88;11.35;;;307.60;2304.00;;;;;;5118052;28;20522;-76
2024/03/01 08:15:29;;;;;;;18.60;10.93;;;307.70;2304.00;;;;;;5105300;28;20028;-75
2024/03/01 08:17:56;;;;;;;19.88;10.82;;;307.80;2304.00;;;;;;5096847;28;20055;-75
2024/03/01 08:20:29;;;;;;;20.10;11.07;;;307.90;2304.00;;;;;;5104235;28;20481;-75
2024/03/01 08:22:55;;;;;;;23.48;11.32;;;308.00;2304.00;;;;;;5110135;28;20085;-76
2024/03/01 08:25:21;;;;;;;17.27;10.23;;;308.10;2304.00;;;;;;5108834;28;20099;-80
2024/03/01 08:27:46;;;;;;;23.20;12.25;;;332.80;2329.60;;;;;;5116827;28;20169;-77
2024/03/01 08:30:35;;;;;;;21.20;11.27;;;332.90;2329.60;;;;;;5103960;28;20020;-77
2024/03/01 08:33:01;;;;;;;18.40;10.38;;;333.10;2329.60;;;;;;5094416;28;20401;-78
2024/03/01 08:35:26;;;;;;;19.38;11.30;;;333.10;2329.60;;;;;;5094258;28;20024;-80
2024/03/01 08:37:52;;;;;;;20.98;10.85;;;333.00;2329.60;;;;;;5110404;28;20024;-78
2024/03/01 08:40:33;;;;;;;19.30;11.60;;;333.20;2329.60;;;;;;5106189;28;20079;-76
2024/03/01 08:42:59;;;;;;;14.88;10.05;;;333.50;2329.60;;;;;;5118160;28;20024;-75
2024/03/01 08:45:43;;;;;;;22.65;11.73;;;333.60;2329.60;;;;;;5112434;28;20016;-76
2024/03/01 08:48:19;;;;;;;17.75;10.45;;;358.60;2329.60;;;;;;5125166;28;20097;-74
2024/03/01 08:50:51;;;;;;;15.05;8.70;;;358.70;2329.60;;;;;;5106634;28;20114;-74
2024/03/01 08:53:42;;;;;;;18.90;10.25;;;358.80;2329.60;;;;;;5109806;27;20099;-74
2024/03/01 08:56:21;;;;;;;20.75;9.65;;;359.00;2329.60;;;;;;5102454;28;20028;-75
2024/03/01 08:58:48;;;;;;;21.60;9.65;;;359.20;2329.60;;;;;;5110182;28;20034;-78
2024/03/01 09:01:29;;;;;;;14.23;8.52;;;384.00;2329.60;;;;;;5113132;27;20469;-75
2024/03/01 09:03:55;;;;;;;15.90;9.32;;;384.10;2329.60;;;;;;5112708;27;20036;-78
2024/03/01 09:06:21;;;;;;;17.15;10.32;;;384.20;2329.60;;;;;;5110569;27;20499;-77
2024/03/01 09:08:46;;;;;;;19.17;8.85;;;384.00;2329.60;;;;;;5109894;27;20039;-80
2024/03/01 09:11:13;;;;;;;15.38;10.02;;;359.20;2329.60;;;;;;5115249;27;20024;-79
2024/03/01 09:13:39;;;;;;;14.40;9.35;;;359.10;2329.60;;;;;;5113663;27;20024;-77
2024/03/01 09:16:19;;;;;;;21.98;11.18;;;384.00;2329.60;;;;;;5119209;27;20485;-77
2024/03/01 09:18:52;;;;;;;14.05;8.75;;;384.40;2329.60;;;;;;5108324;27;20070;-77
2024/03/01 09:21:37;;;;;;;13.75;6.90;;;384.70;2329.60;;;;;;5119298;27;20020;-77
2024/03/01 09:24:04;;;;;;;16.00;8.38;;;384.90;2329.60;;;;;;5111583;27;20028;-77
2024/03/01 09:26:30;;;;;;;15.50;8.98;;;409.90;2355.20;;;;;;5115627;27;20039;-77
2024/03/01 09:29:04;;;;;;;16.20;8.52;;;409.90;2355.20;;;;;;5122376;27;20031;-79
2024/03/01 09:31:31;;;;;;;17.85;10.50;;;409.80;2355.20;;;;;;5116589;27;20483;-77
2024/03/01 09:33:59;;;;;;;16.83;10.50;;;409.90;2355.20;;;;;;5104175;28;20055;-78
2024/03/01 09:36:25;;;;;;;21.85;9.93;;;410.00;2355.20;;;;;;5110166;27;20384;-76
2024/03/01 09:38:54;;;;;;;19.27;10.23;;;410.20;2355.20;;;;;;5113725;27;20469;-76
2024/03/01 09:41:38;;;;;;;17.67;9.43;;;410.30;2355.20;;;;;;5118005;27;20024;-80
2024/03/01 09:44:26;;;;;;;17.00;9.80;;;410.30;2355.20;;;;;;5136352;27;20488;-79
2024/03/01 09:47:11;;;;;;;13.00;8.85;;;410.30;2355.20;;;;;;5117991;27;20512;-81
2024/03/01 09:50:10;;;;;;;23.77;10.52;;;435.20;2355.20;;;;;;5119560;27;20027;-76
2024/03/01 09:52:39;;;;;;;16.35;8.77;;;435.50;2355.20;;;;;;5110962;28;20020;-78
2024/03/01 09:55:29;;;;;;;15.60;9.25;;;435.60;2355.20;;;;;;5112840;27;20027;-77
2024/03/01 09:58:25;;;;;;;23.42;10.20;;;435.40;2355.20;;;;;;5116859;27;20080;-81
2024/03/01 10:01:10;;;;;;;17.77;10.93;;;435.50;2355.20;;;;;;5107964;27;20393;-78
2024/03/01 10:04:04;;;;;;;22.60;10.18;;;435.60;2355.20;;;;;;5107762;27;20066;-80
2024/03/01 10:06:43;;;;;;;17.70;8.98;;;436.00;2355.20;;;;;;5116302;27;20030;-78
2024/03/01 10:09:17;;;;;;;18.33;8.25;;;460.80;2380.80;;;;;;5110105;27;20047;-79
2024/03/01 10:11:43;;;;;;;21.77;9.82;;;436.00;2304.00;;;;;;5120472;27;20120;-79
2024/03/01 10:14:36;;;;;;;19.98;8.10;;;460.80;2355.20;;;;;;5102248;28;20067;-78
2024/03/01 10:17:14;;;;;;;17.73;9.35;;;436.10;2355.20;;;;;;5100949;28;20020;-78
2024/03/01 10:20:06;;;;;;;16.05;10.38;;;460.90;2355.20;;;;;;5104400;28;20555;-79
2024/03/01 10:22:50;;;;;;;16.33;8.60;;;460.80;2380.80;;;;;;5118934;27;20044;-78
2024/03/01 10:25:52;;;;;;;21.05;10.02;;;436.10;2304.00;;;;;;5101443;28;20087;-79
2024/03/01 10:28:40;;;;;;;15.32;8.35;;;460.90;2278.40;;;;;;5101770;28;20085;-80
2024/03/01 10:31:32;;;;;;;17.02;7.85;;;460.90;2278.40;;;;;;5100121;28;20036;-80
2024/03/01 10:34:16;;;;;;;16.00;7.53;;;461.10;2201.60;;;;;;5106335;28;20055;-82
2024/03/01 10:36:53;;;;;;;14.07;7.60;;;461.00;2201.60;;;;;;5105777;27;20081;-83
2024/03/01 10:39:30;;;;;;;20.55;8.50;;;461.20;2176.00;;;;;;5119213;27;20031;-83
2024/03/01 10:42:15;;;;;;;17.60;7.82;;;461.40;2201.60;;;;;;5115360;27;20024;-81
2024/03/01 10:45:12;;;;;;;17.63;8.23;;;461.10;2150.40;;;;;;5117616;27;20031;-80
2024/03/01 10:47:39;;;;;;;;;;;461.30;2201.60;;;;;;5105824;28;20036;-82
2024/03/01 10:50:12;;;;;;;;;;;461.60;2150.40;;;;;;5108633;27;19915;-82
2024/03/01 10:53:04;;;;;;;15.52;7.28;;;461.50;2099.20;;;;;;5110142;27;19907;-81
2024/03/01 10:55:46;;;;;;;19.45;8.23;;;461.70;2073.60;;;;;;5122194;27;20033;-84
2024/03/01 10:58:45;;;;;;;27.77;10.20;;;486.40;2073.60;;;;;;5110279;28;20461;-84
2024/03/01 11:01:20;;;;;;;13.40;7.45;;;461.70;2073.60;;;;;;5102671;27;20424;-78
2024/03/01 11:03:53;;;;;;;23.35;8.82;;;486.70;2048.00;;;;;;5105958;28;20059;-78
2024/03/01 11:06:39;;;;;;;17.23;7.95;;;486.50;2048.00;;;;;;5099988;28;20030;-81
2024/03/01 11:09:32;;;;;;;16.13;7.75;;;486.50;2022.40;;;;;;5104944;27;20055;-81
2024/03/01 11:12:10;;;;;;;14.98;8.07;;;486.80;1971.20;;;;;;5050309;28;20119;-78
2024/03/01 11:14:44;;;;;;;18.63;8.30;;;486.70;1945.60;;;;;;5043886;28;20037;-80
2024/03/01 11:17:11;;;;;;;11.35;8.05;;;486.80;1920.00;;;;;;5034522;28;20066;-82
2024/03/01 11:19:39;;;;;;;23.30;9.13;;;486.70;1945.60;;;;;;5037594;28;20033;-80
2024/03/01 11:22:23;;;;;;;10.32;7.57;;;486.70;1945.60;;;;;;5046553;28;20025;-82
2024/03/01 11:25:14;;;;;;;13.80;8.98;;;486.60;1945.60;;;;;;5048956;28;20083;-87
2024/03/01 11:27:52;;;;;;;12.18;7.25;;;486.80;1971.20;;;;;;5047536;28;20049;-82
2024/03/01 11:30:25;;;;;;;13.32;7.63;;;486.90;1920.00;;;;;;5039728;28;20063;-82
2024/03/01 11:33:01;;;;;;;11.48;7.60;;;486.80;1868.80;;;;;;5051721;28;20029;-81
2024/03/01 11:35:44;;;;;;;19.98;7.90;;;486.90;1868.80;;;;;;5034467;28;20041;-81
2024/03/01 11:38:19;;;;;;;15.98;8.73;;;486.90;1894.40;;;;;;5032637;28;20444;-80
2024/03/01 11:41:02;;;;;;;15.15;8.05;;;487.10;1894.40;;;;;;5050921;28;20029;-79
2024/03/01 11:43:42;;;;;;;15.18;8.10;;;487.10;1894.40;;;;;;5051310;28;20067;-83
2024/03/01 11:46:20;;;;;;;13.27;7.65;;;486.90;1920.00;;;;;;5035142;28;20049;-87
2024/03/01 11:49:24;;;;;;;19.17;7.90;;;486.80;1868.80;;;;;;5062124;28;20127;-83
2024/03/01 11:52:20;;;;;;;16.10;8.10;;;486.80;1868.80;;;;;;5078002;28;20421;-78
2024/03/01 11:55:23;;;;;;;14.15;7.72;;;486.80;1843.20;;;;;;5077139;28;20028;-77
2024/03/01 11:58:13;;;;;;;18.52;8.05;;;487.00;1894.40;;;;;;5066051;28;20024;-76
2024/03/01 12:01:04;;;;;;;15.63;8.32;;;487.10;1817.60;;;;;;5070176;28;20062;-80
2024/03/01 12:04:00;;;;;;;16.50;8.32;;;486.90;1843.20;;;;;;5085256;28;20123;-80
2024/03/01 12:07:01;;;;;;;17.37;7.83;;;487.10;1894.40;;;;;;5077525;28;20032;-81
2024/03/01 12:09:41;;;;;;;12.43;7.63;;;486.90;1843.20;;;;;;5057590;28;20052;-76
2024/03/01 12:12:43;;;;;;;13.98;8.13;;;486.90;1843.20;;;;;;5072413;28;20035;-77
2024/03/01 12:15:27;;;;;;;19.90;9.18;;;487.10;1868.80;;;;;;5065438;28;20461;-79
2024/03/01 12:18:14;;;;;;;11.93;8.30;;;487.00;1843.20;;;;;;5078055;28;20091;-76
2024/03/01 12:20:45;;;;;;;;;;;487.10;1843.20;;;;;;5083053;28;20032;-77